createdAt,value
2022-10-06T00:01:14.641Z,13.36
2022-10-06T00:03:43.429Z,13.30
2022-10-06T00:06:16.074Z,13.47
2022-10-06T00:08:44.419Z,13.44
2022-10-06T00:11:14.344Z,13.39
2022-10-06T00:13:44.844Z,13.40
2022-10-06T00:16:22.557Z,13.57
2022-10-06T00:18:50.918Z,13.23
2022-10-06T00:21:18.501Z,13.30
2022-10-06T00:23:45.941Z,12.98
2022-10-06T00:26:17.277Z,13.11
2022-10-06T00:28:48.051Z,13.14
2022-10-06T00:31:17.712Z,13.11
2022-10-06T00:33:46.339Z,12.93
2022-10-06T00:36:14.003Z,13.25
2022-10-06T00:38:41.721Z,13.01
2022-10-06T00:41:16.826Z,13.09
2022-10-06T00:43:57.041Z,13.19
2022-10-06T00:46:56.681Z,13.16
2022-10-06T00:49:35.805Z,13.10
2022-10-06T00:52:11.064Z,13.13
2022-10-06T00:54:39.399Z,13.14
2022-10-06T00:57:07.326Z,13.20
2022-10-06T00:59:38.422Z,13.12
2022-10-06T01:02:23.045Z,13.01
2022-10-06T01:05:00.968Z,12.77
2022-10-06T01:07:30.683Z,12.79
2022-10-06T01:10:01.368Z,12.78
2022-10-06T01:12:31.865Z,12.93
2022-10-06T01:15:02.497Z,12.81
2022-10-06T01:17:58.965Z,13.03
2022-10-06T01:20:26.985Z,12.85
2022-10-06T01:23:07.083Z,12.97
2022-10-06T01:25:35.896Z,12.98
2022-10-06T01:28:09.923Z,13.03
2022-10-06T01:30:54.831Z,13.10
2022-10-06T01:33:23.217Z,13.09
2022-10-06T01:35:53.952Z,13.08
2022-10-06T01:38:22.198Z,13.05
2022-10-06T01:40:53.004Z,12.96
2022-10-06T01:43:21.749Z,13.12
2022-10-06T01:46:01.876Z,12.90
2022-10-06T01:48:32.165Z,12.81
2022-10-06T01:50:59.969Z,12.60
2022-10-06T01:53:27.372Z,12.70
2022-10-06T01:56:03.353Z,12.79
2022-10-06T01:58:31.176Z,12.68
2022-10-06T02:00:58.835Z,12.70
2022-10-06T02:03:26.093Z,12.64
2022-10-06T02:05:57.491Z,12.69
2022-10-06T02:08:25.075Z,12.70
2022-10-06T02:10:52.550Z,12.66
2022-10-06T02:13:20.416Z,12.58
2022-10-06T02:15:55.289Z,12.60
2022-10-06T02:18:22.732Z,12.60
2022-10-06T02:20:51.741Z,12.61
2022-10-06T02:23:19.088Z,12.61
2022-10-06T02:25:46.559Z,12.61
2022-10-06T02:28:14.427Z,12.73
2022-10-06T02:30:41.853Z,12.73
2022-10-06T02:33:11.818Z,12.60
2022-10-06T02:35:39.259Z,12.70
2022-10-06T02:38:06.924Z,12.61
2022-10-06T02:40:35.620Z,12.74
2022-10-06T02:43:03.129Z,12.74
2022-10-06T02:45:31.496Z,12.72
2022-10-06T02:47:59.565Z,12.73
2022-10-06T02:50:26.905Z,12.70
2022-10-06T02:52:54.981Z,12.65
2022-10-06T02:55:25.523Z,12.56
2022-10-06T02:57:55.407Z,12.59
2022-10-06T03:00:23.021Z,12.66
2022-10-06T03:02:50.581Z,12.63
2022-10-06T03:05:18.408Z,12.72
2022-10-06T03:07:46.235Z,12.67
2022-10-06T03:10:14.398Z,12.63
2022-10-06T03:12:42.299Z,12.64
2022-10-06T03:15:10.765Z,12.77
2022-10-06T03:17:38.563Z,12.64
2022-10-06T03:20:08.876Z,12.71
2022-10-06T03:22:37.114Z,12.89
2022-10-06T03:25:05.641Z,12.71
2022-10-06T03:27:33.705Z,12.86
2022-10-06T03:30:01.618Z,12.90
2022-10-06T03:32:29.156Z,12.82
2022-10-06T03:36:12.466Z,12.70
2022-10-06T03:38:40.712Z,12.52
2022-10-06T03:41:15.266Z,12.64
2022-10-06T03:43:48.656Z,12.72
2022-10-06T03:46:22.386Z,12.68
2022-10-06T03:48:52.738Z,12.70
2022-10-06T03:51:27.157Z,12.70
2022-10-06T03:53:55.029Z,12.76
2022-10-06T03:56:27.550Z,12.75
2022-10-06T03:59:07.842Z,12.66
2022-10-06T04:01:39.905Z,12.92
2022-10-06T04:04:13.608Z,12.90
2022-10-06T04:06:45.039Z,13.07
2022-10-06T04:09:15.847Z,12.74
2022-10-06T04:11:45.095Z,12.71
2022-10-06T04:14:16.098Z,12.95
2022-10-06T04:16:50.322Z,12.86
2022-10-06T04:19:18.999Z,12.79
2022-10-06T04:21:47.978Z,12.79
2022-10-06T04:24:18.687Z,12.66
2022-10-06T04:26:52.551Z,12.78
2022-10-06T04:29:19.864Z,12.73
2022-10-06T04:31:51.866Z,12.69
2022-10-06T04:34:19.136Z,12.89
2022-10-06T04:36:46.802Z,12.93
2022-10-06T04:39:14.551Z,12.85
2022-10-06T04:41:47.491Z,12.81
2022-10-06T04:44:15.272Z,12.86
2022-10-06T04:46:45.539Z,12.92
2022-10-06T04:49:19.507Z,12.84
2022-10-06T04:51:49.866Z,13.01
2022-10-06T04:54:19.038Z,12.94
2022-10-06T04:56:46.648Z,13.09
2022-10-06T04:59:16.723Z,12.91
2022-10-06T05:01:45.383Z,13.20
2022-10-06T05:04:13.501Z,13.11
2022-10-06T05:06:42.589Z,13.09
2022-10-06T05:09:18.090Z,13.06
2022-10-06T05:11:45.422Z,13.03
2022-10-06T05:14:13.114Z,13.13
2022-10-06T05:16:40.806Z,13.38
2022-10-06T05:19:11.750Z,13.34
2022-10-06T05:21:39.259Z,13.34
2022-10-06T05:24:06.960Z,13.46
2022-10-06T05:26:36.902Z,13.42
2022-10-06T05:29:04.566Z,13.34
2022-10-06T05:31:35.244Z,13.43
2022-10-06T05:34:02.604Z,13.54
2022-10-06T05:36:33.591Z,13.50
2022-10-06T05:39:01.686Z,13.65
2022-10-06T05:41:34.638Z,13.83
2022-10-06T05:44:04.715Z,13.93
2022-10-06T05:46:33.598Z,13.92
2022-10-06T05:49:04.578Z,14.29
2022-10-06T05:51:34.906Z,14.44
2022-10-06T05:54:03.613Z,14.57
2022-10-06T05:56:36.215Z,14.99
2022-10-06T05:59:06.799Z,15.17
2022-10-06T06:01:40.791Z,15.86
2022-10-06T06:04:13.843Z,16.24
2022-10-06T06:06:46.816Z,16.49
2022-10-06T06:09:20.374Z,16.60
2022-10-06T06:11:50.597Z,16.92
2022-10-06T06:14:44.018Z,18.25
2022-10-06T06:17:11.746Z,18.77
2022-10-06T06:19:39.109Z,19.28
2022-10-06T06:22:06.611Z,19.18
2022-10-06T06:24:36.268Z,19.68
2022-10-06T06:27:04.358Z,20.71
2022-10-06T06:29:31.556Z,21.09
2022-10-06T06:31:59.514Z,21.49
2022-10-06T06:34:27.522Z,22.29
2022-10-06T06:36:56.008Z,21.30
2022-10-06T06:39:23.641Z,20.18
2022-10-06T06:41:51.238Z,19.57
2022-10-06T06:44:18.629Z,19.64
2022-10-06T06:46:49.251Z,18.90
2022-10-06T06:49:20.790Z,19.14
2022-10-06T06:51:51.167Z,18.77
2022-10-06T06:54:18.771Z,18.80
2022-10-06T06:56:46.856Z,17.92
2022-10-06T06:59:14.667Z,17.98
2022-10-06T07:01:45.985Z,18.05
2022-10-06T07:04:16.499Z,17.90
2022-10-06T07:06:58.821Z,18.22
2022-10-06T07:09:27.189Z,18.10
2022-10-06T07:11:55.536Z,17.92
2022-10-06T07:14:24.368Z,17.93
2022-10-06T07:17:11.142Z,17.78
2022-10-06T07:19:47.466Z,17.91
2022-10-06T07:22:37.270Z,18.04
2022-10-06T07:25:15.960Z,18.20
2022-10-06T07:27:51.344Z,18.15
2022-10-06T07:30:26.595Z,17.83
2022-10-06T07:32:54.790Z,17.93
2022-10-06T07:35:26.559Z,17.97
2022-10-06T07:37:54.027Z,18.11
2022-10-06T07:40:21.746Z,18.20
2022-10-06T07:42:49.222Z,17.98
2022-10-06T07:45:45.307Z,17.65
2022-10-06T07:48:18.350Z,18.10
2022-10-06T07:50:51.176Z,18.72
2022-10-06T07:53:20.475Z,18.46
2022-10-06T07:55:49.813Z,18.42
2022-10-06T07:58:24.288Z,18.49
2022-10-06T08:00:57.694Z,18.55
2022-10-06T08:03:25.428Z,18.22
2022-10-06T08:06:02.010Z,18.27
2022-10-06T08:08:37.923Z,18.41
2022-10-06T08:11:06.750Z,18.57
2022-10-06T08:13:37.344Z,18.39
2022-10-06T08:16:15.040Z,18.50
2022-10-06T08:18:46.637Z,18.62
2022-10-06T08:21:24.022Z,18.57
2022-10-06T08:23:53.367Z,18.80
2022-10-06T08:26:23.246Z,18.68
2022-10-06T08:28:54.230Z,18.96
2022-10-06T08:31:23.901Z,18.66
2022-10-06T08:33:57.011Z,18.94
2022-10-06T08:36:31.828Z,19.40
2022-10-06T08:39:00.977Z,21.10
2022-10-06T08:41:44.879Z,21.61
2022-10-06T08:44:48.944Z,21.48
2022-10-06T08:47:22.953Z,20.79
2022-10-06T08:49:55.350Z,21.54
2022-10-06T08:53:16.402Z,21.09
2022-10-06T08:56:01.496Z,20.44
2022-10-06T08:58:58.599Z,20.03
2022-10-06T09:01:47.807Z,20.31
2022-10-06T09:04:36.562Z,19.75
2022-10-06T09:07:23.393Z,20.43
2022-10-06T09:10:00.894Z,20.53
2022-10-06T09:12:41.343Z,21.65
2022-10-06T09:15:36.701Z,22.74
2022-10-06T09:18:10.846Z,22.87
2022-10-06T09:20:54.262Z,23.82
2022-10-06T09:23:43.614Z,24.83
2022-10-06T09:26:29.522Z,24.31
2022-10-06T09:28:58.166Z,24.82
2022-10-06T09:31:34.771Z,25.31
2022-10-06T09:34:35.083Z,25.28
2022-10-06T09:37:13.928Z,26.36
2022-10-06T09:39:45.682Z,26.13
2022-10-06T09:42:35.796Z,23.32
2022-10-06T09:45:24.279Z,23.84
2022-10-06T09:47:51.739Z,25.25
2022-10-06T09:50:26.242Z,25.19
2022-10-06T09:53:03.497Z,25.70
2022-10-06T09:55:38.004Z,25.80
2022-10-06T09:58:24.570Z,26.31
2022-10-06T10:01:02.421Z,26.25
2022-10-06T10:06:40.646Z,26.62
2022-10-06T10:09:23.342Z,25.73
2022-10-06T10:12:21.831Z,24.61
2022-10-06T10:14:49.641Z,25.81
2022-10-06T10:17:32.588Z,25.85
2022-10-06T10:20:02.952Z,26.40
2022-10-06T10:22:41.337Z,25.27
2022-10-06T10:25:30.613Z,25.26
2022-10-06T10:28:07.751Z,25.19
2022-10-06T10:30:52.870Z,25.67
2022-10-06T10:33:54.019Z,26.42
2022-10-06T10:37:16.619Z,26.20
2022-10-06T10:40:02.917Z,25.44
2022-10-06T10:42:50.154Z,25.90
2022-10-06T10:45:58.696Z,25.82
2022-10-06T10:48:36.665Z,24.87
2022-10-06T10:51:16.973Z,25.66
2022-10-06T10:54:06.302Z,25.81
2022-10-06T10:56:34.489Z,26.10
2022-10-06T10:59:16.494Z,26.10
2022-10-06T11:01:56.424Z,26.55
2022-10-06T11:04:23.979Z,26.34
2022-10-06T11:07:29.826Z,26.15
2022-10-06T11:10:22.404Z,27.39
2022-10-06T11:13:36.965Z,25.99
2022-10-06T11:16:19.237Z,27.10
2022-10-06T11:19:08.304Z,25.72
2022-10-06T11:21:59.503Z,26.96
2022-10-06T11:25:19.818Z,26.99
2022-10-06T11:28:10.548Z,27.87
2022-10-06T11:31:04.379Z,28.50
2022-10-06T11:33:49.157Z,27.48
2022-10-06T11:36:48.122Z,27.84
2022-10-06T11:39:37.070Z,26.84
2022-10-06T11:42:44.974Z,26.38
2022-10-06T11:45:15.533Z,26.72
2022-10-06T11:48:36.883Z,27.09
2022-10-06T11:51:29.579Z,28.18
2022-10-06T11:53:59.755Z,27.47
2022-10-06T11:56:40.176Z,27.69
2022-10-06T11:59:24.042Z,28.21
2022-10-06T12:01:53.250Z,28.06
2022-10-06T12:04:25.433Z,28.16
2022-10-06T12:06:57.491Z,28.40
2022-10-06T12:09:46.317Z,27.53
2022-10-06T12:12:15.564Z,28.50
2022-10-06T12:18:41.943Z,25.40
2022-10-06T12:21:28.019Z,26.22
2022-10-06T12:24:27.410Z,25.87
2022-10-06T12:27:34.717Z,25.58
2022-10-06T12:30:23.964Z,25.74
2022-10-06T12:33:05.795Z,25.48
2022-10-06T12:35:41.913Z,24.65
2022-10-06T12:38:30.860Z,25.13
2022-10-06T12:40:58.339Z,26.57
2022-10-06T12:43:54.172Z,26.05
2022-10-06T12:46:50.274Z,26.01
2022-10-06T12:49:46.321Z,26.22
2022-10-06T12:52:38.220Z,26.30
2022-10-06T12:55:43.909Z,25.93
2022-10-06T12:58:29.553Z,25.22
2022-10-06T13:01:14.032Z,25.17
2022-10-06T13:03:47.475Z,25.24
2022-10-06T13:06:19.427Z,25.24
2022-10-06T13:09:16.114Z,26.05
2022-10-06T13:11:43.300Z,25.53
2022-10-06T13:14:14.617Z,25.20
2022-10-06T13:16:47.266Z,24.76
2022-10-06T13:19:29.806Z,24.32
2022-10-06T13:21:57.912Z,24.64
2022-10-06T13:24:29.488Z,24.22
2022-10-06T13:26:59.570Z,23.94
2022-10-06T13:29:29.432Z,23.90
2022-10-06T13:31:57.349Z,24.01
2022-10-06T13:34:32.234Z,24.16
2022-10-06T13:37:02.579Z,23.86
2022-10-06T13:39:33.284Z,23.68
2022-10-06T13:42:16.361Z,23.53
2022-10-06T13:45:00.727Z,23.26
2022-10-06T13:47:30.314Z,22.40
2022-10-06T13:50:18.803Z,22.51
2022-10-06T13:52:48.799Z,22.78
2022-10-06T13:55:29.464Z,22.87
2022-10-06T13:58:06.532Z,22.84
2022-10-06T14:00:54.571Z,22.73
2022-10-06T14:06:21.542Z,22.66
2022-10-06T14:08:58.147Z,22.22
2022-10-06T14:11:29.802Z,22.94
2022-10-06T14:14:06.566Z,22.49
2022-10-06T14:16:36.398Z,22.65
2022-10-06T14:19:05.870Z,22.89
2022-10-06T14:21:35.817Z,23.16
2022-10-06T14:24:28.841Z,22.91
2022-10-06T14:27:02.898Z,23.24
2022-10-06T14:29:34.274Z,23.54
2022-10-06T14:32:15.707Z,22.38
2022-10-06T14:34:43.728Z,22.71
2022-10-06T14:37:18.346Z,22.23
2022-10-06T14:39:46.809Z,22.14
2022-10-06T14:42:17.550Z,21.94
2022-10-06T14:44:45.433Z,21.76
2022-10-06T14:47:15.236Z,22.49
2022-10-06T14:49:45.571Z,22.36
2022-10-06T14:52:12.987Z,22.24
2022-10-06T14:54:40.508Z,22.53
2022-10-06T14:57:19.065Z,22.48
2022-10-06T15:00:12.114Z,21.81
2022-10-06T15:02:39.517Z,22.20
2022-10-06T15:05:07.357Z,22.09
2022-10-06T15:07:53.386Z,21.86
2022-10-06T15:10:23.183Z,21.30
2022-10-06T15:12:52.342Z,21.28
2022-10-06T15:15:20.620Z,21.36
2022-10-06T15:17:50.761Z,21.53
2022-10-06T15:20:18.535Z,21.77
2022-10-06T15:22:45.759Z,21.39
2022-10-06T15:25:33.095Z,21.46
2022-10-06T15:28:22.850Z,20.57
2022-10-06T15:30:51.378Z,20.05
2022-10-06T15:33:18.764Z,19.87
2022-10-06T15:36:20.530Z,19.30
2022-10-06T15:38:50.092Z,18.97
2022-10-06T15:41:18.640Z,18.83
2022-10-06T15:43:55.359Z,18.54
2022-10-06T15:46:29.350Z,18.53
2022-10-06T15:49:01.734Z,18.44
2022-10-06T15:51:40.554Z,18.27
2022-10-06T15:54:07.895Z,18.16
2022-10-06T15:56:38.410Z,18.08
2022-10-06T15:59:07.136Z,17.98
2022-10-06T16:01:39.139Z,17.73
2022-10-06T16:04:15.852Z,17.81
2022-10-06T16:07:03.426Z,17.63
2022-10-06T16:09:42.071Z,17.37
2022-10-06T16:12:16.401Z,17.41
2022-10-06T16:14:44.751Z,17.33
2022-10-06T16:17:13.737Z,17.20
2022-10-06T16:19:41.866Z,17.21
2022-10-06T16:22:15.052Z,17.06
2022-10-06T16:24:42.724Z,16.86
2022-10-06T16:27:16.017Z,16.77
2022-10-06T16:29:43.321Z,16.48
2022-10-06T16:32:10.908Z,16.31
2022-10-06T16:34:40.774Z,16.18
2022-10-06T16:37:10.820Z,16.27
2022-10-06T16:39:38.006Z,16.16
2022-10-06T16:42:06.461Z,16.04
2022-10-06T16:44:33.909Z,16.15
2022-10-06T16:47:01.211Z,16.00
2022-10-06T16:49:31.840Z,16.04
2022-10-06T16:52:02.111Z,15.95
2022-10-06T16:54:31.756Z,15.73
2022-10-06T16:57:02.008Z,15.78
2022-10-06T16:59:29.702Z,15.68
2022-10-06T17:01:56.909Z,15.72
2022-10-06T17:04:25.917Z,15.63
2022-10-06T17:06:56.285Z,15.60
2022-10-06T17:09:27.473Z,15.59
2022-10-06T17:12:03.825Z,15.33
2022-10-06T17:14:34.682Z,15.33
2022-10-06T17:17:02.412Z,15.14
2022-10-06T17:19:30.825Z,15.21
2022-10-06T17:21:59.847Z,14.85
2022-10-06T17:24:29.226Z,14.88
2022-10-06T17:26:58.205Z,14.54
2022-10-06T17:29:26.507Z,14.62
2022-10-06T17:31:59.874Z,14.39
2022-10-06T17:34:33.404Z,14.42
2022-10-06T17:37:04.025Z,14.36
2022-10-06T17:39:33.928Z,14.36
2022-10-06T17:42:01.280Z,14.35
2022-10-06T17:44:31.256Z,14.18
2022-10-06T17:47:00.760Z,14.25
2022-10-06T17:49:30.824Z,13.99
2022-10-06T17:52:03.194Z,14.06
2022-10-06T17:54:31.945Z,13.81
2022-10-06T17:57:00.465Z,13.78
2022-10-06T17:59:33.991Z,13.72
2022-10-06T18:02:03.151Z,13.48
2022-10-06T18:04:31.027Z,13.46
2022-10-06T18:06:58.595Z,13.41
2022-10-06T18:09:26.147Z,13.33
2022-10-06T18:11:56.959Z,13.16
2022-10-06T18:14:32.418Z,13.10
2022-10-06T18:17:06.684Z,13.13
2022-10-06T18:19:38.613Z,13.06
2022-10-06T18:22:13.061Z,13.09
2022-10-06T18:24:40.521Z,12.98
2022-10-06T18:27:10.459Z,12.73
2022-10-06T18:29:39.243Z,12.93
2022-10-06T18:36:10.429Z,12.60
2022-10-06T18:37:46.019Z,12.53
2022-10-06T18:40:15.109Z,12.72
2022-10-06T18:42:42.572Z,12.73
2022-10-06T18:45:34.266Z,12.68
2022-10-06T18:48:23.409Z,12.66
2022-10-06T18:51:05.209Z,12.53
2022-10-06T18:53:36.457Z,12.32
2022-10-06T18:56:06.217Z,12.43
2022-10-06T18:58:44.784Z,12.03
2022-10-06T19:01:12.679Z,12.18
2022-10-06T19:03:40.894Z,12.23
2022-10-06T19:06:08.768Z,12.20
2022-10-06T19:08:36.310Z,12.21
2022-10-06T19:11:26.532Z,12.05
2022-10-06T19:13:56.217Z,11.94
2022-10-06T19:16:26.737Z,11.95
2022-10-06T19:18:56.704Z,11.83
2022-10-06T19:21:29.284Z,11.79
2022-10-06T19:24:02.019Z,11.71
2022-10-06T19:26:29.656Z,11.75
2022-10-06T19:29:07.126Z,11.72
2022-10-06T19:31:41.489Z,11.62
2022-10-06T19:34:12.891Z,11.49
2022-10-06T19:36:41.651Z,11.46
2022-10-06T19:39:13.229Z,11.32
2022-10-06T19:42:02.680Z,11.31
2022-10-06T19:44:30.155Z,11.41
2022-10-06T19:47:10.655Z,11.33
2022-10-06T19:49:38.539Z,11.36
2022-10-06T19:52:08.982Z,11.29
2022-10-06T19:54:37.395Z,11.34
2022-10-06T19:57:05.779Z,11.27
2022-10-06T19:59:34.175Z,11.20
2022-10-06T20:02:02.391Z,11.22
2022-10-06T20:04:30.707Z,11.18
2022-10-06T20:07:00.385Z,11.04
2022-10-06T20:09:29.896Z,10.86
2022-10-06T20:12:01.733Z,10.75
2022-10-06T20:14:30.294Z,10.82
2022-10-06T20:16:58.915Z,10.66
2022-10-06T20:19:26.724Z,10.43
2022-10-06T20:21:54.454Z,10.52
2022-10-06T20:24:24.862Z,10.72
2022-10-06T20:26:54.195Z,10.66
2022-10-06T20:29:26.026Z,10.71
2022-10-06T20:32:03.069Z,10.29
2022-10-06T20:34:33.894Z,10.51
2022-10-06T20:37:05.102Z,10.57
2022-10-06T20:39:53.159Z,10.49
2022-10-06T20:42:23.629Z,10.49
2022-10-06T20:44:51.425Z,10.41
2022-10-06T20:47:18.952Z,10.45
2022-10-06T20:49:46.753Z,10.51
2022-10-06T20:52:17.108Z,10.47
2022-10-06T20:54:45.056Z,10.46
2022-10-06T20:57:13.588Z,10.43
2022-10-06T20:59:42.181Z,10.40
2022-10-06T21:02:11.296Z,10.42
2022-10-06T21:04:44.028Z,10.37
2022-10-06T21:07:12.170Z,10.04
2022-10-06T21:09:40.165Z,10.22
2022-10-06T21:14:50.458Z,9.94
2022-10-06T21:17:19.427Z,9.93
2022-10-06T21:19:47.041Z,9.84
2022-10-06T21:22:14.834Z,9.86
2022-10-06T21:24:42.553Z,9.72
2022-10-06T21:27:12.979Z,9.89
2022-10-06T21:29:40.646Z,9.97
2022-10-06T21:32:09.914Z,9.96
2022-10-06T21:34:39.737Z,9.97
2022-10-06T21:37:07.442Z,9.83
2022-10-06T21:39:36.594Z,9.91
2022-10-06T21:42:04.867Z,9.80
2022-10-06T21:44:32.537Z,9.79
2022-10-06T21:47:02.862Z,9.77
2022-10-06T21:49:30.392Z,9.82
2022-10-06T21:52:05.276Z,9.84
2022-10-06T21:54:34.392Z,9.70
2022-10-06T21:57:02.320Z,9.48
2022-10-06T21:59:29.854Z,9.36
2022-10-06T22:01:57.459Z,9.39
2022-10-06T22:04:28.139Z,9.47
2022-10-06T22:06:55.769Z,9.36
2022-10-06T22:09:23.670Z,9.30
2022-10-06T22:11:51.391Z,9.17
2022-10-06T22:14:24.038Z,9.39
2022-10-06T22:16:51.846Z,9.37
2022-10-06T22:19:20.220Z,9.37
2022-10-06T22:21:48.862Z,9.34
2022-10-06T22:24:21.465Z,9.31
2022-10-06T22:26:50.271Z,9.25
2022-10-06T22:29:21.239Z,9.21
2022-10-06T22:31:49.439Z,9.12
2022-10-06T22:34:21.139Z,8.74
2022-10-06T22:36:49.120Z,8.67
2022-10-06T22:39:17.347Z,8.69
2022-10-06T22:41:45.986Z,8.77
2022-10-06T22:44:13.733Z,8.89
2022-10-06T22:46:41.410Z,8.82
2022-10-06T22:49:09.268Z,8.96
2022-10-06T22:51:36.944Z,8.99
2022-10-06T22:54:05.045Z,9.06
2022-10-06T22:56:38.314Z,8.81
2022-10-06T22:59:05.737Z,8.79
2022-10-06T23:01:33.257Z,8.95
2022-10-06T23:04:03.421Z,8.91
2022-10-06T23:06:31.668Z,8.91
2022-10-06T23:08:59.691Z,8.85
2022-10-06T23:11:27.757Z,8.87
2022-10-06T23:13:55.871Z,8.77
2022-10-06T23:16:24.139Z,8.68
2022-10-06T23:18:51.930Z,8.69
2022-10-06T23:21:24.490Z,8.84
2022-10-06T23:24:00.243Z,8.71
2022-10-06T23:26:32.142Z,8.71
2022-10-06T23:29:02.643Z,8.68
2022-10-06T23:31:31.106Z,8.66
2022-10-06T23:33:59.625Z,8.72
2022-10-06T23:36:27.180Z,8.65
2022-10-06T23:38:54.821Z,8.71
2022-10-06T23:41:22.632Z,8.66
2022-10-06T23:43:50.112Z,8.68
2022-10-06T23:46:17.901Z,8.63
2022-10-06T23:48:45.483Z,8.67
2022-10-06T23:51:15.625Z,8.71
2022-10-06T23:53:43.419Z,8.56
2022-10-06T23:56:13.980Z,8.53
2022-10-06T23:58:44.656Z,8.40
